createdAt,value
2018-01-03T00:12:09.274Z,7.30
2018-01-03T00:14:36.870Z,7.30
2018-01-03T00:20:26.303Z,7.30
2018-01-03T00:22:58.158Z,7.40
2018-01-03T00:25:26.646Z,7.40
2018-01-03T00:27:54.557Z,7.40
2018-01-03T00:30:23.172Z,7.40
2018-01-03T00:32:56.054Z,7.40
2018-01-03T00:35:24.051Z,7.40
2018-01-03T00:37:51.576Z,7.40
2018-01-03T00:40:19.264Z,7.40
2018-01-03T00:42:47.726Z,7.40
2018-01-03T00:47:50.712Z,7.50
2018-01-03T00:50:18.653Z,7.40
2018-01-03T00:52:47.271Z,7.50
2018-01-03T00:55:16.692Z,7.50
2018-01-03T00:57:46.222Z,7.50
2018-01-03T01:00:15.130Z,7.50
2018-01-03T01:02:42.680Z,7.50
2018-01-03T01:05:11.106Z,7.50
2018-01-03T01:07:38.723Z,7.50
2018-01-03T01:10:06.307Z,7.60
2018-01-03T01:12:33.990Z,7.60
2018-01-03T01:15:01.623Z,7.60
2018-01-03T01:17:30.223Z,7.60
2018-01-03T01:19:57.773Z,7.60
2018-01-03T01:22:25.487Z,7.60
2018-01-03T01:24:53.002Z,7.70
2018-01-03T01:27:21.292Z,7.70
2018-01-03T01:29:48.992Z,7.70
2018-01-03T01:32:18.382Z,7.70
2018-01-03T01:34:46.108Z,7.80
2018-01-03T01:37:14.423Z,7.90
2018-01-03T01:39:41.933Z,7.80
2018-01-03T01:42:09.423Z,7.80
2018-01-03T01:44:36.937Z,7.90
2018-01-03T01:47:06.333Z,7.90
2018-01-03T01:49:33.866Z,7.90
2018-01-03T01:52:02.876Z,7.90
2018-01-03T01:54:30.348Z,7.90
2018-01-03T01:56:57.835Z,8.00
2018-01-03T01:59:26.093Z,8.10
2018-01-03T02:01:54.343Z,8.10
2018-01-03T02:04:21.820Z,8.10
2018-01-03T02:06:50.086Z,8.30
2018-01-03T02:09:17.563Z,8.30
2018-01-03T02:11:45.046Z,8.30
2018-01-03T02:14:12.511Z,8.30
2018-01-03T02:16:40.016Z,8.40
2018-01-03T02:19:07.479Z,8.50
2018-01-03T02:21:34.962Z,8.50
2018-01-03T02:24:02.422Z,8.60
2018-01-03T02:26:29.907Z,8.70
2018-01-03T02:28:57.389Z,8.70
2018-01-03T02:31:24.837Z,8.70
2018-01-03T02:33:52.331Z,8.80
2018-01-03T02:36:20.569Z,8.90
2018-01-03T02:38:49.549Z,8.90
2018-01-03T02:41:17.014Z,8.80
2018-01-03T02:43:44.623Z,8.90
2018-01-03T02:46:12.138Z,9.00
2018-01-03T02:48:39.601Z,9.00
2018-01-03T02:51:07.055Z,9.10
2018-01-03T02:53:34.532Z,9.20
2018-01-03T02:56:02.004Z,9.30
2018-01-03T02:58:29.477Z,9.30
2018-01-03T03:00:56.934Z,9.30
2018-01-03T03:03:24.406Z,9.50
2018-01-03T03:05:52.651Z,9.50
2018-01-03T03:08:20.145Z,9.50
2018-01-03T03:10:47.612Z,9.60
2018-01-03T03:13:15.845Z,9.70
2018-01-03T03:15:43.331Z,9.60
2018-01-03T03:18:10.817Z,9.70
2018-01-03T03:20:39.069Z,10.00
2018-01-03T03:23:06.536Z,9.90
2018-01-03T03:25:34.026Z,10.10
2018-01-03T03:28:02.266Z,10.30
2018-01-03T03:30:29.740Z,10.30
2018-01-03T03:32:57.207Z,10.30
2018-01-03T03:35:24.738Z,10.40
2018-01-03T03:37:52.255Z,10.50
2018-01-03T03:40:20.570Z,10.50
2018-01-03T03:42:48.050Z,10.50
2018-01-03T03:45:15.780Z,10.60
2018-01-03T03:47:43.331Z,10.70
2018-01-03T03:50:12.400Z,10.70
2018-01-03T03:52:39.951Z,10.70
2018-01-03T03:55:07.474Z,10.70
2018-01-03T03:57:34.991Z,10.70
2018-01-03T04:00:02.496Z,10.70
2018-01-03T04:02:29.983Z,10.70
2018-01-03T04:04:57.458Z,10.70
2018-01-03T04:07:24.930Z,10.70
2018-01-03T04:09:52.436Z,10.70
2018-01-03T04:12:20.979Z,10.70
2018-01-03T04:14:48.459Z,10.70
2018-01-03T04:17:15.917Z,10.80
2018-01-03T04:19:43.407Z,10.80
2018-01-03T04:22:11.662Z,10.80
2018-01-03T04:24:39.135Z,10.80
2018-01-03T04:27:06.602Z,10.80
2018-01-03T04:29:34.094Z,10.90
2018-01-03T04:32:05.094Z,10.90
2018-01-03T04:34:32.567Z,11.00
2018-01-03T04:37:00.034Z,11.00
2018-01-03T04:39:27.506Z,11.10
2018-01-03T04:41:55.746Z,11.20
2018-01-03T04:44:23.273Z,11.20
2018-01-03T04:46:50.750Z,11.20
2018-01-03T04:49:18.226Z,11.30
2018-01-03T04:51:45.696Z,11.30
2018-01-03T04:54:13.180Z,11.30
2018-01-03T04:56:40.664Z,11.30
2018-01-03T04:59:08.140Z,11.30
2018-01-03T05:01:35.620Z,11.20
2018-01-03T05:04:03.098Z,11.20
2018-01-03T05:06:30.581Z,11.20
2018-01-03T05:08:58.048Z,11.30
2018-01-03T05:11:25.533Z,11.30
2018-01-03T05:13:53.001Z,11.30
2018-01-03T05:16:20.476Z,11.30
2018-01-03T05:18:48.708Z,11.30
2018-01-03T05:21:16.177Z,11.30
2018-01-03T05:23:43.642Z,11.30
2018-01-03T05:26:11.130Z,11.30
2018-01-03T05:28:39.376Z,11.40
2018-01-03T05:31:06.866Z,11.40
2018-01-03T05:33:34.329Z,11.50
2018-01-03T05:36:01.805Z,11.50
2018-01-03T05:38:30.030Z,11.50
2018-01-03T05:40:57.533Z,11.50
2018-01-03T05:43:25.011Z,11.60
2018-01-03T05:45:53.263Z,11.60
2018-01-03T05:48:20.732Z,11.60
2018-01-03T05:50:48.202Z,11.60
2018-01-03T05:53:15.662Z,11.50
2018-01-03T05:55:43.162Z,11.50
2018-01-03T05:58:10.617Z,11.50
2018-01-03T06:00:38.100Z,11.50
2018-01-03T06:03:05.561Z,11.50
2018-01-03T06:05:33.051Z,11.50
2018-01-03T06:08:00.516Z,11.50
2018-01-03T06:10:27.991Z,11.50
2018-01-03T06:12:55.489Z,11.50
2018-01-03T06:15:23.726Z,11.70
2018-01-03T06:17:51.215Z,11.70
2018-01-03T06:20:18.689Z,11.70
2018-01-03T06:22:46.947Z,11.80
2018-01-03T06:25:14.459Z,11.80
2018-01-03T06:27:41.914Z,11.90
2018-01-03T06:30:09.377Z,11.90
2018-01-03T06:32:36.866Z,12.00
2018-01-03T06:35:04.326Z,12.00
2018-01-03T06:37:31.827Z,12.00
2018-01-03T06:39:59.288Z,12.10
2018-01-03T06:42:26.776Z,12.10
2018-01-03T06:44:55.017Z,12.20
2018-01-03T06:47:22.499Z,12.10
2018-01-03T06:49:49.971Z,12.20
2018-01-03T06:52:20.134Z,12.20
2018-01-03T06:54:47.634Z,12.20
2018-01-03T06:57:15.126Z,12.50
2018-01-03T06:59:43.353Z,12.90
2018-01-03T07:02:10.834Z,12.80
2018-01-03T07:04:38.295Z,13.10
2018-01-03T07:07:06.585Z,13.30
2018-01-03T07:09:34.055Z,13.30
2018-01-03T07:12:01.529Z,13.30
2018-01-03T07:14:29.770Z,13.10
2018-01-03T07:16:57.241Z,13.10
2018-01-03T07:19:24.703Z,13.00
2018-01-03T07:21:52.180Z,12.70
2018-01-03T07:24:19.651Z,12.60
2018-01-03T07:26:47.118Z,11.80
2018-01-03T07:29:14.619Z,10.30
2018-01-03T07:31:42.118Z,10.10
2018-01-03T07:34:09.597Z,10.20
2018-01-03T07:36:37.095Z,10.10
2018-01-03T07:39:05.415Z,10.40
2018-01-03T07:41:32.900Z,10.40
2018-01-03T07:44:00.395Z,10.30
2018-01-03T07:46:28.647Z,10.10
2018-01-03T07:48:56.130Z,10.10
2018-01-03T07:51:25.702Z,10.00
2018-01-03T07:53:53.185Z,10.00
2018-01-03T07:56:20.673Z,10.00
2018-01-03T07:58:48.943Z,10.00
2018-01-03T08:01:16.431Z,9.90
2018-01-03T08:03:43.933Z,9.90
2018-01-03T08:06:11.398Z,9.80
2018-01-03T08:08:38.901Z,9.80
2018-01-03T08:11:07.134Z,9.60
2018-01-03T08:13:36.540Z,9.60
2018-01-03T08:16:04.002Z,9.70
2018-01-03T08:18:31.486Z,9.70
2018-01-03T08:20:58.946Z,9.70
2018-01-03T08:23:26.429Z,9.70
2018-01-03T08:25:53.908Z,9.70
2018-01-03T08:28:21.387Z,9.60
2018-01-03T08:30:48.847Z,9.70
2018-01-03T08:33:16.367Z,9.70
2018-01-03T08:35:43.855Z,9.60
2018-01-03T08:38:12.206Z,9.70
2018-01-03T08:40:39.675Z,9.70
2018-01-03T08:43:07.147Z,9.70
2018-01-03T08:45:34.622Z,9.70
2018-01-03T08:48:02.845Z,9.60
2018-01-03T08:50:30.323Z,9.60
2018-01-03T08:52:57.785Z,9.70
2018-01-03T08:55:28.388Z,9.80
2018-01-03T08:57:55.887Z,9.70
2018-01-03T09:00:26.368Z,9.60
2018-01-03T09:02:53.830Z,9.90
2018-01-03T09:05:24.896Z,9.90
2018-01-03T09:07:52.599Z,9.90
2018-01-03T09:10:20.143Z,10.00
2018-01-03T09:12:47.619Z,10.00
2018-01-03T09:41:20.129Z,7.80
2018-01-03T09:43:53.525Z,7.90
2018-01-03T09:52:14.390Z,8.10
2018-01-03T09:54:51.570Z,8.00
2018-01-03T09:57:29.028Z,7.80
2018-01-03T10:00:03.925Z,7.60
2018-01-03T10:02:37.451Z,7.50
2018-01-03T10:05:05.210Z,7.60
2018-01-03T10:07:33.983Z,7.70
2018-01-03T10:10:03.317Z,7.80
2018-01-03T10:12:30.949Z,7.80
2018-01-03T10:15:02.533Z,7.80
2018-01-03T10:17:30.875Z,7.90
2018-01-03T10:19:58.534Z,7.80
2018-01-03T10:22:26.115Z,7.90
2018-01-03T10:24:53.787Z,7.90
2018-01-03T10:27:24.207Z,7.90
2018-01-03T10:29:52.003Z,7.90
2018-01-03T11:21:26.072Z,8.90
2018-01-03T11:23:53.550Z,8.90
2018-01-03T11:26:21.047Z,9.00
2018-01-03T11:28:48.519Z,9.10
2018-01-03T11:31:16.012Z,9.20
2018-01-03T11:33:45.717Z,9.30
2018-01-03T11:36:15.706Z,9.50
2018-01-03T11:38:43.182Z,9.40
2018-01-03T11:41:10.674Z,9.50
2018-01-03T11:43:38.133Z,9.60
2018-01-03T11:46:06.386Z,9.60
2018-01-03T11:51:27.203Z,9.60
2018-01-03T11:53:57.454Z,9.50
2018-01-03T11:56:25.319Z,9.40
2018-01-03T11:58:55.073Z,9.20
2018-01-03T12:01:22.568Z,9.20
2018-01-03T12:03:50.035Z,9.20
2018-01-03T12:06:17.555Z,9.20
2018-01-03T12:08:45.116Z,9.10
2018-01-03T12:11:14.250Z,9.20
2018-01-03T12:13:41.730Z,9.30
2018-01-03T12:16:09.193Z,9.40
2018-01-03T12:18:36.688Z,9.50
2018-01-03T12:21:04.165Z,9.50
2018-01-03T12:23:31.663Z,9.60
2018-01-03T12:25:59.371Z,9.70
2018-01-03T12:28:27.616Z,9.80
2018-01-03T12:30:55.083Z,9.80
2018-01-03T12:33:22.555Z,9.80
2018-01-03T12:35:50.047Z,9.80
2018-01-03T12:38:18.285Z,9.80
2018-01-03T12:40:45.777Z,9.80
2018-01-03T12:43:13.223Z,9.80
2018-01-03T12:45:40.684Z,9.90
2018-01-03T12:48:08.201Z,9.90
2018-01-03T12:50:35.682Z,9.90
2018-01-03T12:53:03.165Z,9.90
2018-01-03T12:58:22.430Z,9.90
2018-01-03T13:00:49.924Z,9.90
2018-01-03T13:03:17.408Z,9.90
2018-01-03T13:05:45.666Z,9.90
2018-01-03T13:08:13.147Z,9.90
2018-01-03T13:10:41.878Z,10.10
2018-01-03T13:13:09.376Z,10.10
2018-01-03T13:15:36.851Z,10.20
2018-01-03T13:18:05.163Z,10.10
2018-01-03T13:20:32.637Z,10.10
2018-01-03T13:23:00.117Z,10.10
2018-01-03T13:25:27.607Z,10.10
2018-01-03T13:27:55.837Z,9.90
2018-01-03T13:30:23.342Z,9.90
2018-01-03T13:32:50.821Z,10.00
2018-01-03T13:43:57.824Z,10.20
2018-01-03T13:46:25.300Z,10.30
2018-01-03T13:48:52.793Z,10.20
2018-01-03T13:51:20.267Z,10.30
2018-01-03T13:53:49.104Z,10.30
2018-01-03T13:56:16.591Z,10.30
2018-01-03T13:58:44.084Z,10.30
2018-01-03T14:01:11.565Z,10.20
2018-01-03T14:03:39.027Z,10.10
2018-01-03T14:06:06.506Z,10.10
2018-01-03T14:08:33.968Z,10.10
2018-01-03T14:11:01.467Z,10.00
2018-01-03T14:13:29.697Z,9.90
2018-01-03T14:15:57.192Z,9.90
2018-01-03T14:18:24.648Z,9.90
2018-01-03T14:20:52.136Z,9.90
2018-01-03T14:23:20.403Z,9.60
2018-01-03T14:25:47.903Z,9.60
2018-01-03T14:28:17.147Z,9.50
2018-01-03T14:30:44.612Z,9.50
2018-01-03T14:33:12.160Z,9.50
2018-01-03T14:35:42.143Z,9.40
2018-01-03T14:38:09.694Z,9.40
2018-01-03T14:40:38.076Z,9.30
2018-01-03T14:43:06.339Z,9.30
2018-01-03T14:45:33.935Z,9.30
2018-01-03T14:48:02.457Z,9.30
2018-01-03T14:50:30.306Z,9.20
2018-01-03T14:52:57.807Z,9.20
2018-01-03T14:55:25.289Z,9.20
2018-01-03T14:57:52.800Z,9.20
2018-01-03T15:00:20.286Z,9.20
2018-01-03T15:02:47.761Z,9.20
2018-01-03T15:05:15.260Z,9.20
2018-01-03T15:07:43.960Z,9.20
2018-01-03T15:10:12.261Z,9.10
2018-01-03T15:12:39.707Z,9.10
2018-01-03T15:15:07.286Z,9.10
2018-01-03T15:17:34.766Z,9.10
2018-01-03T15:20:02.279Z,9.10
2018-01-03T15:22:29.826Z,9.00
2018-01-03T15:24:57.360Z,9.00
2018-01-03T15:27:24.844Z,9.00
2018-01-03T15:29:52.325Z,9.00
2018-01-03T15:32:19.871Z,9.00
2018-01-03T15:34:47.392Z,9.00
2018-01-03T15:37:16.576Z,9.00
2018-01-03T15:39:44.825Z,9.00
2018-01-03T15:42:12.290Z,9.00
2018-01-03T15:44:39.754Z,9.00
2018-01-03T15:47:07.253Z,9.00
2018-01-03T15:49:34.737Z,9.00
2018-01-03T15:52:02.235Z,9.00
2018-01-03T15:54:29.748Z,9.00
2018-01-03T15:56:57.241Z,8.90
2018-01-03T15:59:24.794Z,8.90
2018-01-03T16:01:52.315Z,8.90
2018-01-03T16:04:20.554Z,8.90
2018-01-03T16:06:48.073Z,8.90
2018-01-03T16:09:15.559Z,8.90
2018-01-03T16:11:43.108Z,8.90
2018-01-03T16:14:10.600Z,8.90
2018-01-03T16:16:38.077Z,9.00
2018-01-03T16:19:05.549Z,8.90
2018-01-03T16:21:33.094Z,8.90
2018-01-03T16:24:00.572Z,8.90
2018-01-03T16:26:28.052Z,8.90
2018-01-03T16:28:55.557Z,8.90
2018-01-03T16:31:23.049Z,8.90
2018-01-03T16:33:50.536Z,8.90
2018-01-03T16:36:18.089Z,8.80
2018-01-03T16:38:45.582Z,8.80
2018-01-03T16:41:14.113Z,8.80
2018-01-03T16:43:41.601Z,8.70
2018-01-03T16:46:09.144Z,8.80
2018-01-03T16:48:36.664Z,8.70
2018-01-03T16:51:04.940Z,8.80
2018-01-03T16:53:33.362Z,8.70
2018-01-03T16:56:01.280Z,8.70
2018-01-03T16:58:35.447Z,8.70
2018-01-03T17:01:02.909Z,8.70
2018-01-03T17:03:30.391Z,8.60
2018-01-03T17:05:57.876Z,8.60
2018-01-03T17:08:27.224Z,8.50
2018-01-03T17:10:54.827Z,8.50
2018-01-03T17:13:22.354Z,8.50
2018-01-03T17:15:49.836Z,8.40
2018-01-03T17:18:17.311Z,8.40
2018-01-03T17:20:44.846Z,8.40
2018-01-03T17:23:12.294Z,8.40
2018-01-03T17:25:40.813Z,8.40
2018-01-03T17:28:08.287Z,8.40
2018-01-03T17:30:40.843Z,8.40
2018-01-03T17:33:08.387Z,8.40
2018-01-03T17:35:37.802Z,8.40
2018-01-03T17:38:05.713Z,8.40
2018-01-03T17:40:33.247Z,8.40
2018-01-03T17:43:00.786Z,8.50
2018-01-03T17:45:29.113Z,8.50
2018-01-03T17:47:56.678Z,8.50
2018-01-03T17:50:25.675Z,8.50
2018-01-03T17:52:53.174Z,8.60
2018-01-03T17:55:21.730Z,8.50
2018-01-03T17:57:49.257Z,8.50
2018-01-03T18:00:17.960Z,8.50
2018-01-03T18:02:46.287Z,8.50
2018-01-03T18:05:14.290Z,8.60
2018-01-03T18:07:42.790Z,8.50
2018-01-03T18:10:11.247Z,8.50
2018-01-03T18:12:38.781Z,8.50
2018-01-03T18:15:07.362Z,8.50
2018-01-03T18:17:34.947Z,8.50
2018-01-03T18:20:03.519Z,8.50
2018-01-03T18:22:31.208Z,8.50
2018-01-03T18:24:58.776Z,8.50
2018-01-03T18:27:27.414Z,8.50
2018-01-03T18:29:54.925Z,8.50
2018-01-03T18:32:22.428Z,8.60
2018-01-03T18:34:50.191Z,8.50
2018-01-03T18:37:17.798Z,8.60
2018-01-03T18:39:45.372Z,8.50
2018-01-03T18:42:13.140Z,8.40
2018-01-03T18:44:41.997Z,8.40
2018-01-03T18:47:10.657Z,8.50
2018-01-03T18:49:38.345Z,8.50
2018-01-03T18:52:06.125Z,8.40
2018-01-03T18:54:35.538Z,8.40
2018-01-03T18:57:05.138Z,8.40
2018-01-03T18:59:33.400Z,8.40
2018-01-03T19:02:01.190Z,8.40
2018-01-03T19:04:29.909Z,8.40
2018-01-03T19:06:57.633Z,8.40
2018-01-03T19:09:25.388Z,8.40
2018-01-03T19:11:53.235Z,8.40
2018-01-03T19:14:20.790Z,8.40
2018-01-03T19:16:48.650Z,8.40
2018-01-03T19:19:16.426Z,8.40
2018-01-03T19:21:45.120Z,8.40
2018-01-03T19:24:13.142Z,8.40
2018-01-03T19:26:42.176Z,8.40
2018-01-03T19:29:11.307Z,8.40
2018-01-03T19:31:39.030Z,8.50
2018-01-03T19:34:06.805Z,8.50
2018-01-03T19:36:34.645Z,8.50
2018-01-03T19:39:02.462Z,8.50
2018-01-03T19:41:30.167Z,8.50
2018-01-03T19:43:58.655Z,8.50
2018-01-03T19:46:27.941Z,8.50
2018-01-03T19:48:56.858Z,8.40
2018-01-03T19:51:24.642Z,8.40
2018-01-03T19:53:53.837Z,8.40
2018-01-03T19:56:23.502Z,8.40
2018-01-03T19:58:51.328Z,8.40
2018-01-03T20:01:19.732Z,8.40
2018-01-03T20:03:47.481Z,8.40
2018-01-03T20:06:15.916Z,8.40
2018-01-03T20:08:43.755Z,8.40
2018-01-03T20:11:13.117Z,8.40
2018-01-03T20:13:41.633Z,8.40
2018-01-03T20:16:09.192Z,8.50
2018-01-03T20:18:36.885Z,8.50
2018-01-03T20:21:05.228Z,8.40
2018-01-03T20:23:33.123Z,8.40
2018-01-03T20:26:01.870Z,8.40
2018-01-03T20:28:29.643Z,8.40
2018-01-03T20:30:57.972Z,8.40
2018-01-03T20:33:26.273Z,8.40
2018-01-03T20:35:54.100Z,8.40
2018-01-03T20:38:22.279Z,8.40
2018-01-03T20:41:11.784Z,8.40
2018-01-03T20:43:39.311Z,8.30
2018-01-03T20:46:06.912Z,8.30
2018-01-03T20:48:34.618Z,8.30
2018-01-03T20:51:02.416Z,8.30
2018-01-03T20:53:30.125Z,8.30
2018-01-03T20:55:58.643Z,8.30
2018-01-03T20:58:26.158Z,8.40
2018-01-03T21:00:54.056Z,8.40
2018-01-03T21:03:23.568Z,8.40
2018-01-03T21:05:51.143Z,8.30
2018-01-03T21:08:19.722Z,8.30
2018-01-03T21:10:48.048Z,8.40
2018-01-03T21:13:16.426Z,8.30
2018-01-03T21:15:46.905Z,8.40
2018-01-03T21:18:15.720Z,8.30
2018-01-03T21:20:43.477Z,8.40
2018-01-03T21:23:11.237Z,8.40
2018-01-03T21:25:38.943Z,8.40
2018-01-03T21:28:28.163Z,8.40
2018-01-03T21:30:56.627Z,8.40
2018-01-03T21:33:25.863Z,8.30
2018-01-03T21:35:55.841Z,8.30
2018-01-03T21:38:25.409Z,8.30
2018-01-03T21:40:53.022Z,8.20
2018-01-03T21:43:20.690Z,8.20
2018-01-03T21:45:48.408Z,8.20
2018-01-03T21:48:17.053Z,8.20
2018-01-03T21:50:46.682Z,8.30
2018-01-03T21:53:14.305Z,8.30
2018-01-03T21:55:43.275Z,8.20
2018-01-03T21:58:10.872Z,8.30
2018-01-03T22:00:40.606Z,8.30
2018-01-03T22:03:08.451Z,8.20
2018-01-03T22:05:40.757Z,8.20
2018-01-03T22:08:09.669Z,8.20
2018-01-03T22:10:38.734Z,8.20
2018-01-03T22:13:07.606Z,8.10
2018-01-03T22:15:36.946Z,8.10
2018-01-03T22:18:19.140Z,8.10
2018-01-03T22:20:46.787Z,8.10
2018-01-03T22:23:15.630Z,8.10
2018-01-03T22:25:44.138Z,8.10
2018-01-03T22:28:14.762Z,8.10
2018-01-03T22:33:35.623Z,8.10
2018-01-03T22:36:03.386Z,8.10
2018-01-03T22:38:31.714Z,8.10
2018-01-03T22:40:59.241Z,8.10
2018-01-03T22:43:26.795Z,8.10
2018-01-03T22:45:54.417Z,8.10
2018-01-03T22:48:29.750Z,8.10
2018-01-03T22:50:57.532Z,8.10
2018-01-03T22:53:25.233Z,8.10
2018-01-03T22:55:52.882Z,8.10
2018-01-03T22:58:20.644Z,8.00
2018-01-03T23:00:49.914Z,8.10
2018-01-03T23:03:19.444Z,8.00
2018-01-03T23:05:48.239Z,8.10
2018-01-03T23:08:15.901Z,8.10
2018-01-03T23:10:44.457Z,8.10
2018-01-03T23:13:12.245Z,8.00
2018-01-03T23:15:41.719Z,8.00
2018-01-03T23:18:09.334Z,8.00
2018-01-03T23:20:38.341Z,8.00
2018-01-03T23:23:05.934Z,8.00
2018-01-03T23:25:33.571Z,8.00
2018-01-03T23:28:01.261Z,8.00
2018-01-03T23:30:29.120Z,7.90
2018-01-03T23:32:56.825Z,7.90
2018-01-03T23:35:24.387Z,7.90
2018-01-03T23:37:51.932Z,7.90
2018-01-03T23:40:26.906Z,7.90
2018-01-03T23:42:54.424Z,7.90
2018-01-03T23:45:35.549Z,7.90
2018-01-03T23:48:04.000Z,7.90
2018-01-03T23:50:34.274Z,7.90
2018-01-03T23:53:02.550Z,7.90
2018-01-03T23:55:30.846Z,7.90
2018-01-03T23:57:58.396Z,7.90
